Wednesday, April 25, 2018, 5:00 AM EDT
Back to Local

KSFM, Sanford, Sanford Regional Airport

Location: Sanford, ME, United States Lat: 43.4
Local Time: 5:00 AM EDT ( 9:00 GMT) Lon: -70.717
Time Zone: US/Eastern Elev: 242 ft

Show me the last for .
Show Coded

Time T Td Feel RH Dir Speed Gust Alt SLP Vis Weather Sky Remarks
2018-04-25 03:56 51 36 - 56 220° 5 - 30.17 30.17 10 FEW070 BKN120 None
2018-04-25 02:56 51 35 - 54 200° 6 - 30.19 30.19 10 CLR None
2018-04-25 01:56 52 36 - 54 210° 6 - 30.20 30.21 10 CLR 6-hr Min Temp (2am): 52.0°F
6-hr Max Temp (2am): 57.0°F
2018-04-25 00:56 53 38 - 56 210° 7 - 30.21 30.22 10 CLR None
2018-04-24 23:56 54 37 - 52 210° 8 - 30.21 30.22 10 CLR 24-hr Min Temp (12am): 32.0°F
24-hr Max Temp (12am): 71.1°F
2018-04-24 22:56 54 35 - 48 200° 7 - 30.21 30.22 10 CLR None
2018-04-24 21:56 54 36 - 50 210° 6 - 30.22 30.23 10 CLR None
2018-04-24 20:56 55 37 - 50 190° 8 - 30.21 30.22 10 CLR None
2018-04-24 19:56 57 37 - 47 190° 9 - 30.20 30.21 10 CLR 6-hr Min Temp (8pm): 57.0°F
6-hr Max Temp (8pm): 71.1°F
2018-04-24 18:56 59 36 - 42 180° 8 18 30.20 30.21 10 CLR None
2018-04-24 17:56 64 34 - 32 200° 9 16 30.21 30.22 10 CLR None
2018-04-24 16:56 68 31 - 25 190° 10 - 30.21 30.22 10 CLR None
2018-04-24 15:56 67 31 - 26 160° 14 22 30.22 30.23 10 CLR None
2018-04-24 14:56 69 30 - 23 190° 13 18 30.24 30.25 10 CLR None
2018-04-24 13:56 70 25 - 18 210° 10 - 30.25 30.26 10 CLR 6-hr Min Temp (2pm): 48.9°F
6-hr Max Temp (2pm): 71.1°F
2018-04-24 12:56 71 25 - 17 210° 9 - 30.28 30.29 10 CLR None
2018-04-24 11:56 66 28 - 23 180° 10 - 30.31 30.32 10 CLR None
2018-04-24 10:56 64 29 - 26 Variable 6 - 30.34 30.34 10 CLR None
2018-04-24 09:56 60 26 - 27 240° 8 - 30.36 30.37 10 CLR None
2018-04-24 08:56 54 27 - 35 180° 6 - 30.37 30.38 10 CLR None
2018-04-24 07:56 49 26 47 40 220° 5 - 30.37 30.38 10 CLR 6-hr Min Temp (8am): 32.0°F
6-hr Max Temp (8am): 48.9°F
2018-04-24 06:56 33 27 - 77 - Calm - 30.37 30.39 10 CLR None
2018-04-24 05:56 34 25 - 69 - Calm - 30.37 30.38 10 CLR None

Support USWX by starting your Amazon purchase here.